Time;durP1;ratioP1;P1;durP2;ratioP2;P2;SDS_P1;SDS_P2;PMS_P1;PMS_P2;Temp;Humidity;BMP_temperature;BMP_pressure;BME280_temperature;BME280_humidity;BME280_pressure;Samples;Min_cycle;Max_cycle;Signal;HPM_P1;HPM_P2
2022/05/02 00:00:24;;;;;;;13.85;9.23;;;;;;;;;;5053489;28;20040;-72
2022/05/02 00:02:51;;;;;;;11.43;8.63;;;;;;;;;;5053471;28;20033;-73
2022/05/02 00:05:18;;;;;;;11.45;9.38;;;;;;;;;;5053204;28;20130;-72
2022/05/02 00:07:45;;;;;;;10.18;8.38;;;;;;;;;;5053524;28;20376;-72
2022/05/02 00:10:12;;;;;;;13.77;10.77;;;;;;;;;;5050841;28;20111;-73
2022/05/02 00:12:39;;;;;;;14.75;10.32;;;;;;;;;;5042490;28;20035;-73
2022/05/02 00:15:06;;;;;;;13.07;9.68;;;;;;;;;;5041752;28;20375;-74
2022/05/02 00:20:18;;;;;;;14.73;10.13;;;;;;;;;;5029757;28;20044;-74
2022/05/02 00:22:45;;;;;;;12.55;9.45;;;;;;;;;;5033741;28;20021;-73
2022/05/02 00:25:12;;;;;;;16.98;9.65;;;;;;;;;;5033734;28;20511;-73
2022/05/02 00:27:39;;;;;;;12.55;10.25;;;;;;;;;;5042684;28;20032;-74
2022/05/02 00:30:06;;;;;;;12.02;9.52;;;;;;;;;;5053402;28;20103;-74
2022/05/02 00:32:33;;;;;;;13.80;10.00;;;;;;;;;;5051088;28;20446;-74
2022/05/02 00:35:00;;;;;;;17.83;11.23;;;;;;;;;;5048436;28;20021;-74
2022/05/02 00:37:26;;;;;;;14.57;11.23;;;;;;;;;;5048253;28;20029;-73
2022/05/02 00:39:53;;;;;;;14.10;11.30;;;;;;;;;;5048396;28;20036;-74
2022/05/02 00:42:21;;;;;;;14.73;11.40;;;;;;;;;;5049753;28;20082;-74
2022/05/02 00:44:48;;;;;;;15.23;11.60;;;;;;;;;;5053110;28;20384;-73
2022/05/02 00:47:15;;;;;;;14.97;12.37;;;;;;;;;;5052928;28;20033;-74
2022/05/02 00:49:43;;;;;;;13.80;11.30;;;;;;;;;;5053120;28;20468;-74
2022/05/02 00:52:09;;;;;;;16.37;12.00;;;;;;;;;;5053146;28;20027;-74
2022/05/02 00:54:37;;;;;;;23.50;13.70;;;;;;;;;;5051021;28;20025;-74
2022/05/02 00:57:07;;;;;;;14.83;11.87;;;;;;;;;;5047845;28;20557;-74
2022/05/02 00:59:34;;;;;;;17.23;12.70;;;;;;;;;;5047948;28;20041;-74
2022/05/02 01:02:01;;;;;;;19.87;13.00;;;;;;;;;;5047766;28;20096;-73
2022/05/02 01:04:28;;;;;;;16.37;14.13;;;;;;;;;;5048471;28;20119;-74
2022/05/02 01:07:11;;;;;;;16.73;13.30;;;;;;;;;;5052856;28;20036;-74
2022/05/02 01:09:39;;;;;;;18.13;13.20;;;;;;;;;;5052883;28;20036;-73
2022/05/02 01:12:14;;;;;;;16.83;13.53;;;;;;;;;;5052590;28;20025;-74
2022/05/02 01:14:41;;;;;;;16.07;12.87;;;;;;;;;;5052860;28;20028;-73
2022/05/02 01:17:08;;;;;;;19.30;14.53;;;;;;;;;;5050483;28;20027;-73
2022/05/02 01:19:35;;;;;;;20.33;15.57;;;;;;;;;;5047504;28;20037;-73
2022/05/02 01:22:02;;;;;;;19.53;14.23;;;;;;;;;;5047274;28;20055;-73
2022/05/02 01:24:39;;;;;;;20.00;15.03;;;;;;;;;;5047385;28;20026;-74
2022/05/02 01:27:07;;;;;;;20.10;16.00;;;;;;;;;;5049050;28;20017;-73
2022/05/02 01:29:34;;;;;;;23.30;15.93;;;;;;;;;;5052408;28;20052;-73
2022/05/02 01:32:01;;;;;;;22.13;15.77;;;;;;;;;;5052121;28;20029;-73
2022/05/02 01:34:28;;;;;;;19.93;15.37;;;;;;;;;;5052090;28;20021;-74
2022/05/02 01:36:56;;;;;;;18.60;15.50;;;;;;;;;;5052333;28;20086;-74
2022/05/02 01:39:23;;;;;;;18.03;14.87;;;;;;;;;;5050181;28;20402;-74
2022/05/02 01:41:49;;;;;;;20.43;15.33;;;;;;;;;;5047420;28;20033;-73
2022/05/02 01:44:16;;;;;;;19.10;16.20;;;;;;;;;;5047056;28;20025;-74
2022/05/02 01:46:43;;;;;;;20.43;15.53;;;;;;;;;;5047221;28;20427;-74
2022/05/02 01:49:10;;;;;;;20.57;16.50;;;;;;;;;;5048248;28;20167;-73
2022/05/02 01:51:36;;;;;;;20.43;16.30;;;;;;;;;;5052280;28;20033;-74
2022/05/02 01:54:06;;;;;;;22.20;17.00;;;;;;;;;;5052063;28;20045;-74
2022/05/02 01:56:32;;;;;;;22.20;17.60;;;;;;;;;;5052025;28;20032;-74
2022/05/02 01:58:59;;;;;;;17.80;15.63;;;;;;;;;;5052427;28;20424;-74
2022/05/02 02:01:26;;;;;;;19.80;16.93;;;;;;;;;;5050675;28;20045;-74
2022/05/02 02:03:53;;;;;;;20.23;16.33;;;;;;;;;;5046846;28;20021;-74
2022/05/02 02:06:21;;;;;;;21.90;17.63;;;;;;;;;;5046863;28;20032;-74
2022/05/02 02:08:49;;;;;;;24.90;16.90;;;;;;;;;;5046888;28;20083;-73
2022/05/02 02:11:16;;;;;;;21.53;17.47;;;;;;;;;;5047645;28;20460;-73
2022/05/02 02:13:43;;;;;;;23.43;17.73;;;;;;;;;;5051862;28;20463;-73
2022/05/02 02:16:10;;;;;;;23.33;17.33;;;;;;;;;;5052073;28;20408;-73
2022/05/02 02:18:41;;;;;;;21.93;17.20;;;;;;;;;;5051994;28;20021;-73
2022/05/02 02:21:09;;;;;;;23.57;17.27;;;;;;;;;;5051905;28;20057;-73
2022/05/02 02:23:37;;;;;;;22.17;16.77;;;;;;;;;;5050817;28;20031;-73
2022/05/02 02:26:05;;;;;;;21.83;15.83;;;;;;;;;;5046445;28;20048;-73
2022/05/02 02:28:33;;;;;;;25.33;16.93;;;;;;;;;;5046952;28;20030;-74
2022/05/02 02:30:59;;;;;;;24.23;18.43;;;;;;;;;;5046726;28;20491;-73
2022/05/02 02:33:29;;;;;;;25.20;18.13;;;;;;;;;;5047255;28;20478;-74
2022/05/02 02:35:56;;;;;;;24.73;19.03;;;;;;;;;;5051731;28;20032;-74
2022/05/02 02:38:26;;;;;;;23.40;17.47;;;;;;;;;;5051578;28;20392;-73
2022/05/02 02:40:53;;;;;;;20.80;16.03;;;;;;;;;;5051208;28;21878;-73
2022/05/02 02:43:20;;;;;;;24.90;17.67;;;;;;;;;;5054077;28;20021;-73
2022/05/02 02:45:46;;;;;;;24.67;17.47;;;;;;;;;;5054699;28;20029;-73
2022/05/02 02:48:13;;;;;;;25.47;18.17;;;;;;;;;;5050129;28;20021;-73
2022/05/02 02:50:40;;;;;;;23.70;17.23;;;;;;;;;;5047124;28;20032;-73
2022/05/02 02:53:06;;;;;;;23.50;17.70;;;;;;;;;;5032153;28;20125;-72
2022/05/02 02:55:33;;;;;;;20.73;16.03;;;;;;;;;;5049869;28;20480;-71
2022/05/02 02:58:00;;;;;;;25.87;16.60;;;;;;;;;;5055322;28;20032;-71
2022/05/02 03:00:27;;;;;;;20.70;16.63;;;;;;;;;;5054811;28;20061;-71
2022/05/02 03:02:54;;;;;;;23.10;17.40;;;;;;;;;;5054880;28;20360;-71
2022/05/02 03:08:06;;;;;;;28.83;16.53;;;;;;;;;;5054162;28;20098;-71
2022/05/02 03:10:33;;;;;;;29.87;19.60;;;;;;;;;;5049416;28;20021;-71
2022/05/02 03:13:00;;;;;;;25.80;19.73;;;;;;;;;;5049739;28;20100;-71
2022/05/02 03:15:26;;;;;;;27.50;19.60;;;;;;;;;;5049813;28;20472;-71
2022/05/02 03:17:53;;;;;;;26.13;20.23;;;;;;;;;;5049557;28;20509;-71
2022/05/02 03:20:20;;;;;;;32.73;22.50;;;;;;;;;;5054919;28;20032;-71
2022/05/02 03:22:47;;;;;;;32.33;22.13;;;;;;;;;;5054528;28;20021;-72
2022/05/02 03:25:13;;;;;;;28.90;23.77;;;;;;;;;;5054952;28;20399;-71
2022/05/02 03:27:40;;;;;;;31.87;23.33;;;;;;;;;;5054588;28;20104;-71
2022/05/02 03:30:07;;;;;;;31.13;23.03;;;;;;;;;;5054190;28;20029;-71
2022/05/02 03:32:34;;;;;;;29.37;24.20;;;;;;;;;;5049510;28;20021;-71
2022/05/02 03:35:00;;;;;;;32.97;23.93;;;;;;;;;;5049514;28;20079;-71
2022/05/02 03:37:27;;;;;;;28.33;23.17;;;;;;;;;;5049381;28;20468;-71
2022/05/02 03:39:54;;;;;;;29.20;23.37;;;;;;;;;;5048684;28;20471;-71
2022/05/02 03:42:20;;;;;;;28.23;21.00;;;;;;;;;;5052940;28;20033;-71
2022/05/02 03:44:47;;;;;;;32.00;23.80;;;;;;;;;;5054268;28;20108;-71
2022/05/02 03:47:14;;;;;;;33.27;23.87;;;;;;;;;;5054045;28;20028;-71
2022/05/02 03:49:40;;;;;;;27.80;23.13;;;;;;;;;;5054323;28;20033;-71
2022/05/02 03:52:07;;;;;;;31.43;23.33;;;;;;;;;;5054337;28;20039;-71
2022/05/02 03:54:34;;;;;;;29.07;22.23;;;;;;;;;;5049231;28;20478;-71
2022/05/02 03:57:01;;;;;;;32.17;26.17;;;;;;;;;;5049040;28;20032;-71
2022/05/02 03:59:27;;;;;;;30.10;24.27;;;;;;;;;;5049157;28;20063;-71
2022/05/02 04:01:54;;;;;;;34.07;23.37;;;;;;;;;;5033762;28;20028;-71
2022/05/02 04:04:21;;;;;;;28.33;21.97;;;;;;;;;;5032759;28;20018;-71
2022/05/02 04:06:48;;;;;;;30.50;24.80;;;;;;;;;;5034084;28;20372;-71
2022/05/02 04:09:15;;;;;;;25.00;21.67;;;;;;;;;;5033963;28;20555;-71
2022/05/02 04:11:41;;;;;;;23.30;18.93;;;;;;;;;;5033986;28;20025;-72
2022/05/02 04:14:08;;;;;;;22.20;17.97;;;;;;;;;;5033674;28;20057;-71
2022/05/02 04:16:35;;;;;;;26.97;18.77;;;;;;;;;;5030032;28;20111;-71
2022/05/02 04:19:02;;;;;;;24.37;16.47;;;;;;;;;;5028711;28;20057;-71
2022/05/02 04:21:28;;;;;;;17.73;14.43;;;;;;;;;;5028987;28;20036;-71
2022/05/02 04:23:55;;;;;;;16.87;13.97;;;;;;;;;;5028591;28;20377;-71
2022/05/02 04:26:22;;;;;;;16.17;13.20;;;;;;;;;;5031560;28;20104;-71
2022/05/02 04:28:49;;;;;;;18.17;13.40;;;;;;;;;;5033462;28;20032;-71
2022/05/02 04:31:16;;;;;;;13.67;11.10;;;;;;;;;;5042800;28;20044;-71
2022/05/02 04:33:42;;;;;;;12.93;10.00;;;;;;;;;;5053409;28;20028;-71
2022/05/02 04:36:09;;;;;;;13.53;10.70;;;;;;;;;;5046038;28;20025;-65
2022/05/02 04:38:36;;;;;;;15.27;13.00;;;;;;;;;;5049609;28;20021;-66
2022/05/02 04:41:03;;;;;;;16.07;13.77;;;;;;;;;;5027879;28;20040;-68
2022/05/02 04:43:30;;;;;;;19.60;13.13;;;;;;;;;;5028195;28;20029;-68
2022/05/02 04:45:56;;;;;;;17.33;13.87;;;;;;;;;;5027945;28;20022;-66
2022/05/02 04:48:24;;;;;;;19.73;14.17;;;;;;;;;;5030228;28;20068;-66
2022/05/02 04:50:50;;;;;;;19.87;13.37;;;;;;;;;;5034139;28;20036;-66
2022/05/02 04:53:17;;;;;;;17.97;13.50;;;;;;;;;;5033069;28;20460;-66
2022/05/02 04:55:44;;;;;;;15.97;13.10;;;;;;;;;;5033190;28;20026;-66
2022/05/02 04:58:10;;;;;;;17.53;14.37;;;;;;;;;;5032586;28;20533;-67
2022/05/02 05:00:37;;;;;;;17.97;12.93;;;;;;;;;;5030150;28;20025;-66
2022/05/02 05:03:04;;;;;;;20.23;14.50;;;;;;;;;;5028709;28;20061;-69
2022/05/02 05:05:31;;;;;;;17.57;14.17;;;;;;;;;;5026736;28;20499;-69
2022/05/02 05:07:58;;;;;;;18.13;14.10;;;;;;;;;;5027481;28;20068;-64
2022/05/02 05:10:25;;;;;;;18.17;13.97;;;;;;;;;;5029396;28;20022;-66
2022/05/02 05:12:54;;;;;;;20.43;16.23;;;;;;;;;;5032659;28;20025;-64
2022/05/02 05:18:31;;;;;;;22.33;16.50;;;;;;;;;;5032483;28;20028;-65
2022/05/02 05:21:06;;;;;;;23.40;16.57;;;;;;;;;;5032081;28;20040;-66
2022/05/02 05:23:51;;;;;;;23.73;16.80;;;;;;;;;;5028388;28;20538;-67
2022/05/02 05:26:25;;;;;;;20.83;15.63;;;;;;;;;;5027223;28;20029;-67
2022/05/02 05:29:01;;;;;;;20.08;15.90;;;;;;;;;;5027135;28;20029;-67
2022/05/02 05:31:33;;;;;;;16.53;14.53;;;;;;;;;;5027038;28;20017;-67
2022/05/02 05:34:16;;;;;;;17.43;11.87;;;;;;;;;;5044892;28;20464;-66
2022/05/02 05:36:58;;;;;;;18.17;13.70;;;;;;;;;;5052224;28;20055;-67
2022/05/02 05:39:45;;;;;;;15.80;11.90;;;;;;;;;;5051996;28;20025;-67
2022/05/02 05:42:22;;;;;;;17.27;11.47;;;;;;;;;;5052302;28;20029;-67
2022/05/02 05:45:02;;;;;;;18.70;13.37;;;;;;;;;;5050442;28;20449;-67
2022/05/02 05:47:41;;;;;;;15.13;11.73;;;;;;;;;;5046795;28;20036;-67
2022/05/02 05:50:21;;;;;;;15.80;10.73;;;;;;;;;;5046877;28;20043;-67
2022/05/02 05:53:01;;;;;;;14.93;10.97;;;;;;;;;;5046839;28;20100;-67
2022/05/02 05:55:31;;;;;;;14.60;10.37;;;;;;;;;;5049305;28;20017;-67
2022/05/02 05:58:08;;;;;;;17.93;10.67;;;;;;;;;;5052089;28;20028;-67
2022/05/02 06:00:35;;;;;;;15.70;11.00;;;;;;;;;;5051968;28;20040;-67
2022/05/02 06:03:15;;;;;;;15.70;11.33;;;;;;;;;;5050256;28;20055;-67
2022/05/02 06:05:43;;;;;;;16.70;12.10;;;;;;;;;;5051703;28;20464;-67
2022/05/02 06:08:16;;;;;;;17.13;12.93;;;;;;;;;;5046184;28;20082;-67
2022/05/02 06:10:43;;;;;;;18.70;12.60;;;;;;;;;;5046869;28;20039;-67
2022/05/02 06:13:10;;;;;;;21.87;13.37;;;;;;;;;;5046409;28;20021;-67
2022/05/02 06:18:30;;;;;;;22.33;13.70;;;;;;;;;;5054553;28;20040;-66
2022/05/02 06:21:06;;;;;;;19.90;14.50;;;;;;;;;;5055680;28;20057;-66
2022/05/02 06:23:36;;;;;;;19.53;13.07;;;;;;;;;;5055867;28;20018;-67
2022/05/02 06:26:04;;;;;;;15.60;12.17;;;;;;;;;;5055733;28;20071;-67
2022/05/02 06:28:31;;;;;;;21.93;14.00;;;;;;;;;;5055372;28;20059;-67
2022/05/02 06:31:00;;;;;;;17.83;13.63;;;;;;;;;;5050423;28;20025;-67
2022/05/02 06:33:27;;;;;;;21.63;13.07;;;;;;;;;;5050452;28;20103;-67
2022/05/02 06:36:12;;;;;;;20.20;15.23;;;;;;;;;;5050319;28;20021;-67
2022/05/02 06:38:38;;;;;;;;;;;;;;;;;;5030982;28;20521;-66
2022/05/02 06:41:11;;;;;;;16.60;11.57;;;;;;;;;;5034630;28;20291;-66
2022/05/02 06:43:46;;;;;;;23.70;15.83;;;;;;;;;;5035465;28;20075;-66
2022/05/02 06:46:16;;;;;;;23.00;16.70;;;;;;;;;;5035618;28;20112;-66
2022/05/02 06:48:43;;;;;;;21.33;13.73;;;;;;;;;;5035198;28;20096;-67
2022/05/02 06:51:14;;;;;;;22.83;15.03;;;;;;;;;;5034974;28;20128;-67
2022/05/02 06:53:41;;;;;;;20.03;14.57;;;;;;;;;;5029685;28;20029;-67
2022/05/02 06:56:26;;;;;;;21.03;15.50;;;;;;;;;;5029993;28;20674;-66
2022/05/02 06:59:02;;;;;;;19.60;13.75;;;;;;;;;;5029970;28;20060;-67
2022/05/02 07:01:41;;;;;;;20.23;14.80;;;;;;;;;;5030394;28;20029;-67
2022/05/02 07:04:07;;;;;;;18.77;13.77;;;;;;;;;;5054517;28;20025;-66
2022/05/02 07:06:53;;;;;;;22.33;14.67;;;;;;;;;;5055115;28;20490;-66
2022/05/02 07:09:25;;;;;;;24.50;15.63;;;;;;;;;;5054804;28;20103;-66
2022/05/02 07:12:11;;;;;;;27.00;15.80;;;;;;;;;;5054950;28;20083;-66
2022/05/02 07:14:51;;;;;;;19.00;14.33;;;;;;;;;;5052321;28;20498;-67
2022/05/02 07:17:27;;;;;;;21.77;15.53;;;;;;;;;;5049553;28;20105;-67
2022/05/02 07:20:04;;;;;;;22.03;16.63;;;;;;;;;;5049225;28;20048;-66
2022/05/02 07:22:35;;;;;;;23.37;15.77;;;;;;;;;;5049284;28;20028;-66
2022/05/02 07:25:02;;;;;;;23.60;14.50;;;;;;;;;;5052477;28;20421;-67
2022/05/02 07:27:46;;;;;;;25.30;17.93;;;;;;;;;;5054604;28;20036;-66
2022/05/02 07:30:13;;;;;;;21.90;16.43;;;;;;;;;;5054512;28;20096;-66
2022/05/02 07:32:40;;;;;;;21.60;14.90;;;;;;;;;;5047413;28;20034;-66
2022/05/02 07:35:07;;;;;;;21.10;15.57;;;;;;;;;;5034527;28;20476;-66
2022/05/02 07:37:37;;;;;;;22.67;16.00;;;;;;;;;;5030565;28;20029;-67
2022/05/02 07:40:05;;;;;;;22.73;15.73;;;;;;;;;;5029082;28;20029;-67
2022/05/02 07:42:33;;;;;;;21.27;15.07;;;;;;;;;;5029115;28;20032;-66
2022/05/02 07:45:01;;;;;;;23.30;15.47;;;;;;;;;;5029189;28;20477;-66
2022/05/02 07:47:28;;;;;;;20.10;14.17;;;;;;;;;;5032058;28;20029;-67
2022/05/02 07:49:57;;;;;;;21.17;13.90;;;;;;;;;;5034381;28;20022;-66
2022/05/02 07:52:25;;;;;;;22.33;14.43;;;;;;;;;;5034235;28;20029;-66
2022/05/02 07:54:52;;;;;;;24.27;16.10;;;;;;;;;;5034315;28;20031;-66
2022/05/02 07:57:21;;;;;;;19.33;14.47;;;;;;;;;;5034129;28;20033;-66
2022/05/02 07:59:51;;;;;;;18.60;14.10;;;;;;;;;;5030146;28;20099;-66
2022/05/02 08:02:19;;;;;;;21.40;13.67;;;;;;;;;;5036431;28;20028;-66
2022/05/02 08:04:46;;;;;;;17.53;13.27;;;;;;;;;;5048462;28;20021;-66
2022/05/02 08:07:19;;;;;;;20.03;13.00;;;;;;;;;;5048581;28;20037;-66
2022/05/02 08:09:49;;;;;;;23.20;14.97;;;;;;;;;;5050451;28;20056;-66
2022/05/02 08:12:37;;;;;;;25.73;16.20;;;;;;;;;;5033765;28;20036;-66
2022/05/02 08:15:13;;;;;;;24.97;15.43;;;;;;;;;;5033758;28;20022;-66
2022/05/02 08:17:58;;;;;;;16.23;12.37;;;;;;;;;;5033662;28;20052;-66
2022/05/02 08:20:24;;;;;;;;;;;;;;;;;;5034198;28;20034;-66
2022/05/02 08:29:06;;;;;;;22.13;13.73;;;;;;;;;;4990913;28;20452;-66
2022/05/02 08:31:39;;;;;;;20.30;14.45;;;;;;;;;;5031516;28;20368;-66
2022/05/02 08:34:14;;;;;;;16.67;12.20;;;;;;;;;;5053339;28;20025;-67
2022/05/02 08:37:03;;;;;;;16.90;12.43;;;;;;;;;;5053239;28;20033;-66
2022/05/02 08:39:36;;;;;;;16.03;13.47;;;;;;;;;;5052264;28;20025;-66
2022/05/02 08:42:15;;;;;;;19.53;14.93;;;;;;;;;;5051061;28;20064;-66
2022/05/02 08:44:53;;;;;;;21.83;15.20;;;;;;;;;;5046823;28;20060;-66
2022/05/02 08:47:31;;;;;;;20.67;15.17;;;;;;;;;;5047762;28;20020;-66
2022/05/02 08:50:01;;;;;;;19.33;13.80;;;;;;;;;;5047751;28;20059;-65
2022/05/02 08:52:28;;;;;;;16.13;13.63;;;;;;;;;;5047699;28;20032;-66
2022/05/02 08:55:13;;;;;;;16.03;12.90;;;;;;;;;;5051567;28;20029;-66
2022/05/02 08:57:45;;;;;;;17.95;13.02;;;;;;;;;;5039919;28;20032;-66
2022/05/02 09:00:44;;;;;;;17.50;13.00;;;;;;;;;;5032862;28;20041;-66
2022/05/02 09:03:29;;;;;;;16.30;12.63;;;;;;;;;;4979227;28;20503;-66
2022/05/02 09:05:58;;;;;;;12.85;10.20;;;;;;;;;;5030744;28;20113;-66
2022/05/02 09:08:43;;;;;;;15.20;11.67;;;;;;;;;;5027368;28;20029;-66
2022/05/02 09:11:09;;;;;;;;;;;;;;;;;;5027810;28;20029;-66
2022/05/02 09:13:54;;;;;;;16.33;12.67;;;;;;;;;;5027368;28;19915;-67
2022/05/02 09:16:27;;;;;;;16.08;13.38;;;;;;;;;;5029756;28;20013;-66
2022/05/02 09:18:54;;;;;;;17.43;13.00;;;;;;;;;;5032499;28;20025;-66
2022/05/02 09:21:36;;;;;;;18.03;14.20;;;;;;;;;;5032402;28;20102;-65
2022/05/02 09:24:18;;;;;;;19.13;13.57;;;;;;;;;;5032617;28;20063;-65
2022/05/02 09:26:59;;;;;;;16.40;12.33;;;;;;;;;;5034243;28;20022;-66
2022/05/02 09:29:46;;;;;;;18.37;14.17;;;;;;;;;;5038132;28;20090;-66
2022/05/02 09:32:15;;;;;;;18.60;14.10;;;;;;;;;;5047203;28;20029;-66
2022/05/02 09:34:42;;;;;;;17.00;13.63;;;;;;;;;;5046916;28;20088;-66
2022/05/02 09:37:15;;;;;;;18.17;14.47;;;;;;;;;;5046567;28;20028;-66
2022/05/02 09:39:48;;;;;;;18.50;14.30;;;;;;;;;;5051545;28;20033;-65
2022/05/02 09:42:26;;;;;;;20.27;14.40;;;;;;;;;;5052235;28;20508;-66
2022/05/02 09:51:08;;;;;;;16.07;11.43;;;;;;;;;;4974280;28;20124;-65
2022/05/02 09:53:41;;;;;;;20.60;12.83;;;;;;;;;;5046780;28;20082;-67
2022/05/02 09:59:00;;;;;;;17.43;13.23;;;;;;;;;;5037448;28;20044;-66
2022/05/02 10:01:27;;;;;;;16.17;12.37;;;;;;;;;;5050015;28;20033;-65
2022/05/02 10:03:54;;;;;;;17.53;13.03;;;;;;;;;;5040074;28;20048;-65
2022/05/02 10:06:36;;;;;;;17.77;13.00;;;;;;;;;;5032124;28;20424;-65
2022/05/02 10:09:03;;;;;;;16.10;12.97;;;;;;;;;;5031638;28;20037;-65
2022/05/02 10:11:51;;;;;;;18.93;13.17;;;;;;;;;;5032040;28;20036;-65
2022/05/02 10:14:31;;;;;;;16.30;12.27;;;;;;;;;;5026971;28;20037;-66
2022/05/02 10:17:12;;;;;;;15.97;10.87;;;;;;;;;;5026742;28;20546;-65
2022/05/02 10:19:55;;;;;;;14.00;10.30;;;;;;;;;;5026597;28;20345;-65
2022/05/02 10:22:24;;;;;;;14.70;11.70;;;;;;;;;;5026949;28;20028;-65
2022/05/02 10:25:08;;;;;;;18.40;13.63;;;;;;;;;;5031892;28;20026;-66
2022/05/02 10:27:41;;;;;;;16.85;13.88;;;;;;;;;;5047083;28;20025;-65
2022/05/02 10:30:12;;;;;;;19.67;14.53;;;;;;;;;;5051740;28;20357;-66
2022/05/02 10:32:44;;;;;;;22.73;15.70;;;;;;;;;;5051921;28;20112;-65
2022/05/02 10:35:12;;;;;;;17.83;14.17;;;;;;;;;;5049965;28;20484;-65
2022/05/02 10:37:42;;;;;;;17.03;12.73;;;;;;;;;;5046090;28;20107;-65
2022/05/02 10:40:16;;;;;;;17.63;13.10;;;;;;;;;;5046354;28;20025;-66
2022/05/02 10:42:46;;;;;;;18.00;14.00;;;;;;;;;;5046437;28;20367;-65
2022/05/02 10:45:14;;;;;;;16.80;11.73;;;;;;;;;;5047756;28;20108;-65
2022/05/02 10:47:45;;;;;;;15.57;12.47;;;;;;;;;;5051477;28;20100;-65
2022/05/02 10:50:30;;;;;;;18.30;12.67;;;;;;;;;;5051156;28;20028;-65
2022/05/02 10:53:03;;;;;;;18.50;13.73;;;;;;;;;;5051668;28;20476;-65
2022/05/02 10:55:33;;;;;;;15.70;11.77;;;;;;;;;;5051534;28;20024;-66
2022/05/02 10:58:06;;;;;;;15.20;10.50;;;;;;;;;;5029770;28;20075;-66
2022/05/02 11:00:33;;;;;;;22.13;12.57;;;;;;;;;;5026005;28;20033;-66
2022/05/02 11:03:22;;;;;;;15.30;12.40;;;;;;;;;;5026373;28;20092;-66
2022/05/02 11:05:51;;;;;;;17.63;11.60;;;;;;;;;;5029710;28;20091;-65
2022/05/02 11:08:44;;;;;;;16.73;12.40;;;;;;;;;;5032780;28;20022;-65
2022/05/02 11:11:15;;;;;;;16.23;11.10;;;;;;;;;;4997766;28;20069;-65
2022/05/02 11:13:45;;;;;;;18.77;12.87;;;;;;;;;;5034913;28;20029;-65
2022/05/02 11:16:23;;;;;;;16.03;12.03;;;;;;;;;;5034862;28;20025;-65
2022/05/02 11:22:14;;;;;;;16.60;11.80;;;;;;;;;;5029799;28;20091;-65
2022/05/02 11:24:41;;;;;;;16.70;12.68;;;;;;;;;;5029436;28;20021;-65
2022/05/02 11:27:31;;;;;;;17.93;12.83;;;;;;;;;;5040203;28;20028;-66
2022/05/02 11:30:02;;;;;;;20.20;13.50;;;;;;;;;;5051052;28;20032;-65
2022/05/02 11:32:43;;;;;;;16.13;12.67;;;;;;;;;;5054238;28;20380;-65
2022/05/02 11:35:09;;;;;;;18.03;12.87;;;;;;;;;;5054581;28;20158;-64
2022/05/02 11:37:39;;;;;;;19.77;12.63;;;;;;;;;;5054410;28;20017;-66
2022/05/02 11:40:10;;;;;;;17.67;11.27;;;;;;;;;;5054211;28;20379;-65
2022/05/02 11:42:42;;;;;;;16.37;12.60;;;;;;;;;;5051396;28;20040;-65
2022/05/02 11:45:13;;;;;;;22.07;13.83;;;;;;;;;;5048884;28;20032;-65
2022/05/02 11:47:58;;;;;;;15.97;11.63;;;;;;;;;;5048861;28;20100;-65
2022/05/02 11:50:25;;;;;;;21.60;15.13;;;;;;;;;;5048728;28;20496;-65
2022/05/02 11:52:53;;;;;;;18.63;13.97;;;;;;;;;;5052321;28;20355;-65
2022/05/02 11:55:28;;;;;;;17.87;12.50;;;;;;;;;;5053531;28;20474;-65
2022/05/02 11:58:03;;;;;;;19.58;13.57;;;;;;;;;;5049535;28;20891;-64
2022/05/02 12:00:34;;;;;;;16.02;12.30;;;;;;;;;;5054072;28;20040;-65
2022/05/02 12:03:05;;;;;;;20.80;14.03;;;;;;;;;;5054069;28;20017;-66
2022/05/02 12:05:37;;;;;;;16.40;13.00;;;;;;;;;;5049229;28;20104;-66
2022/05/02 12:08:06;;;;;;;19.40;13.53;;;;;;;;;;5048478;28;20017;-66
2022/05/02 12:10:34;;;;;;;16.17;11.87;;;;;;;;;;5048391;28;20025;-67
2022/05/02 12:13:01;;;;;;;15.47;12.83;;;;;;;;;;5048236;28;20032;-67
2022/05/02 12:15:28;;;;;;;19.17;14.80;;;;;;;;;;5052244;28;20036;-67
2022/05/02 12:17:56;;;;;;;24.63;17.93;;;;;;;;;;5051876;28;20353;-65
2022/05/02 12:20:41;;;;;;;20.27;14.43;;;;;;;;;;5053416;28;20036;-65
2022/05/02 12:23:16;;;;;;;18.63;13.03;;;;;;;;;;5053511;28;20357;-65
2022/05/02 12:25:43;;;;;;;;;;;;;;;;;;5054011;28;20108;-66
2022/05/02 12:28:09;;;;;;;20.67;13.57;;;;;;;;;;5048328;28;20005;-65
2022/05/02 12:30:39;;;;;;;24.60;16.07;;;;;;;;;;5043352;28;20157;-65
2022/05/02 12:33:06;;;;;;;23.17;16.77;;;;;;;;;;5011516;28;21001;-65
2022/05/02 12:35:37;;;;;;;21.33;15.70;;;;;;;;;;5028138;28;20029;-65
2022/05/02 12:38:15;;;;;;;20.97;15.77;;;;;;;;;;5032665;28;20023;-65
2022/05/02 12:40:42;;;;;;;30.17;17.10;;;;;;;;;;5031610;28;20044;-65
2022/05/02 12:43:10;;;;;;;25.07;16.70;;;;;;;;;;5031541;28;20021;-66
2022/05/02 12:45:47;;;;;;;25.37;16.33;;;;;;;;;;5030957;28;20029;-67
2022/05/02 12:48:20;;;;;;;26.90;17.10;;;;;;;;;;5030769;28;20100;-65
2022/05/02 12:50:47;;;;;;;27.77;17.57;;;;;;;;;;5026173;28;20032;-68
2022/05/02 12:56:08;;;;;;;25.73;18.50;;;;;;;;;;4986000;28;20976;-68
2022/05/02 13:01:24;;;;;;;24.43;17.37;;;;;;;;;;5032852;28;20045;-68
2022/05/02 13:04:00;;;;;;;23.10;15.03;;;;;;;;;;5045054;28;20108;-68
2022/05/02 13:06:27;;;;;;;23.83;15.73;;;;;;;;;;5052377;28;20024;-65
2022/05/02 13:09:12;;;;;;;20.40;14.27;;;;;;;;;;5052737;28;20092;-66
2022/05/02 13:11:40;;;;;;;26.42;17.48;;;;;;;;;;5049695;28;20029;-66
2022/05/02 13:14:09;;;;;;;21.07;16.83;;;;;;;;;;5046585;28;20024;-66
2022/05/02 13:16:35;;;;;;;26.73;17.90;;;;;;;;;;5029234;28;20805;-66
2022/05/02 13:19:04;;;;;;;20.27;16.53;;;;;;;;;;5046949;28;20510;-66
2022/05/02 13:21:32;;;;;;;26.40;18.23;;;;;;;;;;5048960;28;20044;-66
2022/05/02 13:23:59;;;;;;;22.67;17.07;;;;;;;;;;5052197;28;20536;-66
2022/05/02 13:26:27;;;;;;;39.87;19.87;;;;;;;;;;5052089;28;20025;-66
2022/05/02 13:29:10;;;;;;;25.17;18.43;;;;;;;;;;5052425;28;20602;-66
2022/05/02 13:31:45;;;;;;;25.70;17.57;;;;;;;;;;5050526;28;20017;-66
2022/05/02 13:34:38;;;;;;;27.00;17.67;;;;;;;;;;5048978;28;20052;-66
2022/05/02 13:37:12;;;;;;;23.53;17.20;;;;;;;;;;5042282;28;20129;-66
2022/05/02 13:39:52;;;;;;;23.25;17.27;;;;;;;;;;5042197;28;20021;-69
2022/05/02 13:42:39;;;;;;;21.97;16.13;;;;;;;;;;5026662;28;20018;-69
2022/05/02 13:45:22;;;;;;;21.80;17.17;;;;;;;;;;4982711;28;20480;-69
2022/05/02 13:47:48;;;;;;;20.40;16.27;;;;;;;;;;5032420;28;20025;-69
2022/05/02 13:50:19;;;;;;;23.60;15.10;;;;;;;;;;5033046;28;20025;-69
2022/05/02 13:52:59;;;;;;;29.17;19.57;;;;;;;;;;5032173;28;20037;-69
2022/05/02 13:55:45;;;;;;;23.43;15.33;;;;;;;;;;5031113;28;20030;-69
2022/05/02 13:58:15;;;;;;;24.77;17.00;;;;;;;;;;5026520;28;20025;-69
2022/05/02 14:03:25;;;;;;;24.33;16.60;;;;;;;;;;5026550;28;20419;-69
2022/05/02 14:08:20;;;;;;;21.73;15.47;;;;;;;;;;5032063;28;20041;-67
2022/05/02 14:10:54;;;;;;;25.50;17.77;;;;;;;;;;5032020;28;20365;-66
2022/05/02 14:13:21;;;;;;;22.50;17.27;;;;;;;;;;5031935;28;20057;-67
2022/05/02 14:15:48;;;;;;;23.77;18.40;;;;;;;;;;5031503;28;20025;-67
2022/05/02 14:18:18;;;;;;;22.87;17.97;;;;;;;;;;5029702;28;20665;-67
2022/05/02 14:20:46;;;;;;;23.83;18.97;;;;;;;;;;5027188;28;20377;-67
2022/05/02 14:23:13;;;;;;;24.37;18.57;;;;;;;;;;5039755;28;20154;-67
2022/05/02 14:25:41;;;;;;;22.07;17.60;;;;;;;;;;5026374;28;20026;-67
2022/05/02 14:28:07;;;;;;;27.03;19.27;;;;;;;;;;5027804;28;20049;-66
2022/05/02 14:30:37;;;;;;;23.47;18.17;;;;;;;;;;5032579;28;20083;-67
2022/05/02 14:33:09;;;;;;;23.60;18.50;;;;;;;;;;5031870;28;20025;-67
2022/05/02 14:35:43;;;;;;;25.53;17.47;;;;;;;;;;5031880;28;20018;-67
2022/05/02 14:38:14;;;;;;;22.75;18.98;;;;;;;;;;5032269;28;20029;-67
2022/05/02 14:40:42;;;;;;;22.87;17.80;;;;;;;;;;5032787;28;20043;-67
2022/05/02 14:43:09;;;;;;;22.27;16.90;;;;;;;;;;5029488;28;20532;-68
2022/05/02 14:45:37;;;;;;;26.03;19.33;;;;;;;;;;5030712;28;20572;-70
2022/05/02 14:48:07;;;;;;;25.53;18.77;;;;;;;;;;5029711;28;20400;-69
2022/05/02 14:50:34;;;;;;;23.40;16.97;;;;;;;;;;5031794;28;20056;-70
2022/05/02 14:53:09;;;;;;;21.47;17.47;;;;;;;;;;5039218;28;20079;-67
2022/05/02 14:55:35;;;;;;;;;;;;;;;;;;5055608;28;20083;-70
2022/05/02 14:58:05;;;;;;;22.30;16.97;;;;;;;;;;5055027;28;20329;-69
2022/05/02 15:00:32;;;;;;;19.10;16.03;;;;;;;;;;5053346;28;20129;-70
2022/05/02 15:03:02;;;;;;;26.27;18.67;;;;;;;;;;5052373;28;20492;-67
2022/05/02 15:05:30;;;;;;;21.13;17.50;;;;;;;;;;5049529;28;20749;-70
2022/05/02 15:08:03;;;;;;;23.47;19.53;;;;;;;;;;5049472;28;20074;-70
2022/05/02 15:10:32;;;;;;;22.87;19.00;;;;;;;;;;5049165;28;20029;-70
2022/05/02 15:12:59;;;;;;;23.40;18.93;;;;;;;;;;5051606;28;20056;-70
2022/05/02 15:15:29;;;;;;;24.00;20.60;;;;;;;;;;5054964;28;20078;-70
2022/05/02 15:18:04;;;;;;;21.90;18.43;;;;;;;;;;5054268;28;20411;-67
2022/05/02 15:20:33;;;;;;;25.67;20.37;;;;;;;;;;5054673;28;20033;-70